Time,TemperatureF,DewpointF,PressureIn,WindDirection,WindDirectionDegrees,WindSpeedMPH,WindSpeedGustMPH,Humidity,HourlyPrecipIn,Conditions,Clouds,dailyrainin,SoftwareType,DateUTC
2013-03-07 00:10:00,30.2,27.1,29.89,North,0,0.0,-999.0,88,-99.99,,,0.00,Acu-Link.com,2013-03-07 05:10:00,
2013-03-07 00:26:00,30.2,27.4,29.88,NNW,337,0.0,-999.0,89,-99.99,,,0.00,Acu-Link.com,2013-03-07 05:26:00,
2013-03-07 00:41:00,30.2,27.4,29.88,NE,45,2.0,-999.0,89,-99.99,,,0.00,Acu-Link.com,2013-03-07 05:41:00,
2013-03-07 00:56:00,32.0,27.7,29.88,West,270,1.1,-999.0,84,-99.99,,,0.00,Acu-Link.com,2013-03-07 05:56:00,
2013-03-07 01:11:00,30.2,26.2,29.90,NNE,22,0.0,-999.0,85,-99.99,,,0.00,Acu-Link.com,2013-03-07 06:11:00,
2013-03-07 01:27:00,30.2,26.8,29.90,NNE,22,0.0,-999.0,87,-99.99,,,0.00,Acu-Link.com,2013-03-07 06:27:00,
2013-03-07 01:42:00,30.2,27.1,29.90,North,0,0.0,-999.0,88,-99.99,,,0.00,Acu-Link.com,2013-03-07 06:42:00,
2013-03-07 01:57:00,28.4,25.8,29.90,SW,225,0.0,-999.0,90,-99.99,,,0.00,Acu-Link.com,2013-03-07 06:57:00,
2013-03-07 02:12:00,28.4,26.4,29.89,West,270,0.0,-999.0,92,-99.99,,,0.00,Acu-Link.com,2013-03-07 07:12:00,
2013-03-07 02:28:00,28.4,26.4,29.89,West,270,1.6,-999.0,92,-99.99,,,0.00,Acu-Link.com,2013-03-07 07:28:00,
2013-03-07 02:43:00,30.2,27.9,29.89,ENE,67,0.0,-999.0,91,-99.99,,,0.00,Acu-Link.com,2013-03-07 07:43:00,
2013-03-07 02:58:00,28.4,26.1,29.89,NNE,22,0.0,-999.0,91,-99.99,,,0.00,Acu-Link.com,2013-03-07 07:58:00,
2013-03-07 03:13:00,28.4,26.4,29.89,NE,45,1.1,-999.0,92,-99.99,,,0.00,Acu-Link.com,2013-03-07 08:13:00,
2013-03-07 03:29:00,28.4,26.1,29.89,NNE,22,0.0,-999.0,91,-99.99,,,0.00,Acu-Link.com,2013-03-07 08:29:00,
2013-03-07 03:44:00,28.4,26.1,29.89,NNE,22,0.0,-999.0,91,-99.99,,,0.00,Acu-Link.com,2013-03-07 08:44:00,
2013-03-07 03:59:00,28.4,26.4,29.90,NNE,22,0.0,-999.0,92,-99.99,,,0.00,Acu-Link.com,2013-03-07 08:59:00,
2013-03-07 04:14:00,28.4,26.9,29.91,West,270,0.0,-999.0,94,-99.99,,,0.00,Acu-Link.com,2013-03-07 09:14:00,
2013-03-07 04:29:00,28.4,27.2,29.91,NNW,337,0.0,-999.0,95,-99.99,,,0.00,Acu-Link.com,2013-03-07 09:29:00,
2013-03-07 04:45:00,28.4,26.9,29.91,WNW,292,0.0,-999.0,94,-99.99,,,0.00,Acu-Link.com,2013-03-07 09:45:00,
2013-03-07 05:00:00,28.4,27.2,29.92,NNE,22,0.0,-999.0,95,-99.99,,,0.00,Acu-Link.com,2013-03-07 10:00:00,
2013-03-07 05:15:00,26.6,25.6,29.92,NNE,22,0.0,-999.0,96,-99.99,,,0.00,Acu-Link.com,2013-03-07 10:15:00,
2013-03-07 05:30:00,26.6,25.9,29.92,NW,315,0.0,-999.0,97,-99.99,,,0.00,Acu-Link.com,2013-03-07 10:30:00,
2013-03-07 05:46:00,26.6,25.9,29.93,WNW,292,0.0,-999.0,97,-99.99,,,0.00,Acu-Link.com,2013-03-07 10:46:00,
2013-03-07 06:01:00,26.6,25.9,29.94,NNE,22,1.1,-999.0,97,-99.99,,,0.00,Acu-Link.com,2013-03-07 11:01:00,
2013-03-07 06:16:00,26.6,26.1,29.95,NNE,22,0.0,-999.0,98,-99.99,,,0.00,Acu-Link.com,2013-03-07 11:16:00,
2013-03-07 06:31:00,26.6,26.1,29.95,NNE,22,0.0,-999.0,98,-99.99,,,0.00,Acu-Link.com,2013-03-07 11:31:00,
2013-03-07 06:47:00,28.4,27.9,29.95,NNE,22,0.0,-999.0,98,-99.99,,,0.00,Acu-Link.com,2013-03-07 11:47:00,
2013-03-07 07:02:00,28.4,27.9,29.96,NNE,22,0.0,-999.0,98,-99.99,,,0.00,Acu-Link.com,2013-03-07 12:02:00,
2013-03-07 07:17:00,28.4,28.2,29.96,North,0,0.0,-999.0,99,-99.99,,,0.00,Acu-Link.com,2013-03-07 12:17:00,
2013-03-07 07:32:00,28.4,28.2,29.97,NNE,22,0.0,-999.0,99,-99.99,,,0.00,Acu-Link.com,2013-03-07 12:32:00,
2013-03-07 07:47:00,32.0,31.2,29.98,NNE,22,2.0,-999.0,97,-99.99,,,0.00,Acu-Link.com,2013-03-07 12:47:00,
2013-03-07 08:03:00,35.6,29.4,29.99,South,180,2.0,-999.0,78,-99.99,,,0.00,Acu-Link.com,2013-03-07 13:03:00,
2013-03-07 08:18:00,39.2,29.2,29.99,NNW,337,1.6,-999.0,67,-99.99,,,0.00,Acu-Link.com,2013-03-07 13:18:00,
2013-03-07 08:33:00,37.4,28.2,29.99,SSW,202,1.6,-999.0,69,-99.99,,,0.00,Acu-Link.com,2013-03-07 13:33:00,
2013-03-07 08:49:00,37.4,27.5,29.99,East,90,2.0,-999.0,67,-99.99,,,0.00,Acu-Link.com,2013-03-07 13:49:00,
2013-03-07 09:04:00,41.0,29.4,29.98,East,90,3.6,-999.0,63,-99.99,,,0.00,Acu-Link.com,2013-03-07 14:04:00,
2013-03-07 09:19:00,41.0,29.4,29.98,West,270,3.6,-999.0,63,-99.99,,,0.00,Acu-Link.com,2013-03-07 14:19:00,
2013-03-07 09:35:00,41.0,27.8,29.99,ESE,112,4.0,-999.0,59,-99.99,,,0.00,Acu-Link.com,2013-03-07 14:35:00,
2013-03-07 09:50:00,44.6,29.4,29.98,West,270,2.7,-999.0,55,-99.99,,,0.00,Acu-Link.com,2013-03-07 14:50:00,
2013-03-07 10:05:00,44.6,29.9,29.99,South,180,2.7,-999.0,56,-99.99,,,0.00,Acu-Link.com,2013-03-07 15:05:00,
2013-03-07 10:20:00,44.6,29.4,29.99,WNW,292,2.7,-999.0,55,-99.99,,,0.00,Acu-Link.com,2013-03-07 15:20:00,
2013-03-07 10:36:00,44.6,29.4,29.99,West,270,2.7,-999.0,55,-99.99,,,0.00,Acu-Link.com,2013-03-07 15:36:00,
2013-03-07 10:51:00,46.4,31.6,29.99,NE,45,3.1,-999.0,56,-99.99,,,0.00,Acu-Link.com,2013-03-07 15:51:00,
2013-03-07 11:06:00,46.4,29.7,29.99,SSE,157,1.6,-999.0,52,-99.99,,,0.00,Acu-Link.com,2013-03-07 16:06:00,
2013-03-07 11:21:00,48.2,30.9,29.98,NNW,337,4.7,-999.0,51,-99.99,,,0.00,Acu-Link.com,2013-03-07 16:21:00,
2013-03-07 11:37:00,48.2,30.4,29.98,NNW,337,2.0,-999.0,50,-99.99,,,0.00,Acu-Link.com,2013-03-07 16:37:00,
2013-03-07 11:52:00,46.4,28.3,29.98,West,270,3.1,-999.0,49,-99.99,,,0.00,Acu-Link.com,2013-03-07 16:52:00,
2013-03-07 12:07:00,48.2,28.9,29.97,East,90,4.0,-999.0,47,-99.99,,,0.00,Acu-Link.com,2013-03-07 17:07:00,
2013-03-07 12:22:00,50.0,30.6,29.97,NNW,337,2.7,-999.0,47,-99.99,,,0.00,Acu-Link.com,2013-03-07 17:22:00,
2013-03-07 12:37:00,50.0,30.0,29.95,SSW,202,4.0,-999.0,46,-99.99,,,0.00,Acu-Link.com,2013-03-07 17:37:00,
2013-03-07 12:53:00,50.0,28.4,29.95,NW,315,2.7,-999.0,43,-99.99,,,0.00,Acu-Link.com,2013-03-07 17:53:00,
2013-03-07 13:08:00,50.0,29.5,29.94,ENE,67,2.7,-999.0,45,-99.99,,,0.00,Acu-Link.com,2013-03-07 18:08:00,
2013-03-07 13:23:00,53.6,31.1,29.93,SE,135,1.6,-999.0,42,-99.99,,,0.00,Acu-Link.com,2013-03-07 18:23:00,
2013-03-07 13:39:00,53.6,32.2,29.92,SW,225,2.7,-999.0,44,-99.99,,,0.00,Acu-Link.com,2013-03-07 18:39:00,
2013-03-07 13:54:00,51.8,28.9,29.92,East,90,4.0,-999.0,41,-99.99,,,0.00,Acu-Link.com,2013-03-07 18:54:00,
2013-03-07 14:09:00,53.6,29.9,29.92,SSE,157,2.7,-999.0,40,-99.99,,,0.00,Acu-Link.com,2013-03-07 19:09:00,
2013-03-07 14:24:00,53.6,28.0,29.92,ESE,112,6.7,-999.0,37,-99.99,,,0.00,Acu-Link.com,2013-03-07 19:24:00,
2013-03-07 14:39:00,53.6,29.3,29.91,NE,45,4.0,-999.0,39,-99.99,,,0.00,Acu-Link.com,2013-03-07 19:39:00,
2013-03-07 14:55:00,55.4,29.6,29.91,ESE,112,3.6,-999.0,37,-99.99,,,0.00,Acu-Link.com,2013-03-07 19:55:00,
2013-03-07 15:10:00,55.4,30.9,29.91,SSW,202,3.6,-999.0,39,-99.99,,,0.00,Acu-Link.com,2013-03-07 20:10:00,
2013-03-07 15:40:00,55.4,30.2,29.91,SSW,202,4.0,-999.0,38,-99.99,,,0.00,Acu-Link.com,2013-03-07 20:40:00,
2013-03-07 16:11:00,59.0,29.9,29.91,ESE,112,2.7,-999.0,33,-99.99,,,0.00,Acu-Link.com,2013-03-07 21:11:00,
2013-03-07 16:26:00,59.0,29.9,29.91,NNW,337,2.7,-999.0,33,-99.99,,,0.00,Acu-Link.com,2013-03-07 21:26:00,
2013-03-07 16:41:00,55.4,28.2,29.91,SSW,202,2.7,-999.0,35,-99.99,,,0.73,Acu-Link.com,2013-03-07 21:41:00,
2013-03-07 16:57:00,53.6,28.0,29.91,North,0,1.1,-999.0,37,-99.99,,,0.73,Acu-Link.com,2013-03-07 21:57:00,
2013-03-07 17:12:00,53.6,29.3,29.92,West,270,2.0,-999.0,39,-99.99,,,1.46,Acu-Link.com,2013-03-07 22:12:00,
2013-03-07 17:27:00,51.8,28.9,29.93,NNE,22,1.6,-999.0,41,-99.99,,,1.46,Acu-Link.com,2013-03-07 22:27:00,
2013-03-07 17:42:00,50.0,29.0,29.93,WSW,247,5.1,-999.0,44,-99.99,,,1.46,Acu-Link.com,2013-03-07 22:42:00,
2013-03-07 17:58:00,50.0,30.0,29.94,NE,45,1.6,-999.0,46,-99.99,,,1.46,Acu-Link.com,2013-03-07 22:58:00,
2013-03-07 18:13:00,48.2,28.4,29.95,South,180,2.7,-999.0,46,-99.99,,,1.46,Acu-Link.com,2013-03-07 23:13:00,
2013-03-07 18:28:00,46.4,28.3,29.96,NNW,337,3.6,-999.0,49,-99.99,,,1.46,Acu-Link.com,2013-03-07 23:28:00,
2013-03-07 18:43:00,44.6,27.1,29.96,North,0,4.0,-999.0,50,-99.99,,,1.46,Acu-Link.com,2013-03-07 23:43:00,
2013-03-07 18:58:00,44.6,29.0,29.96,WNW,292,2.7,-999.0,54,-99.99,,,1.46,Acu-Link.com,2013-03-07 23:58:00,
2013-03-07 19:14:00,42.8,27.8,29.98,North,0,3.1,-999.0,55,-99.99,,,1.46,Acu-Link.com,2013-03-08 00:14:00,
2013-03-07 19:29:00,41.0,26.9,29.98,SW,225,1.1,-999.0,57,-99.99,,,1.46,Acu-Link.com,2013-03-08 00:29:00,
2013-03-07 19:44:00,41.0,27.8,29.99,ENE,67,2.7,-999.0,59,-99.99,,,1.46,Acu-Link.com,2013-03-08 00:44:00,
2013-03-07 19:59:00,41.0,27.8,29.99,North,0,2.0,-999.0,59,-99.99,,,1.46,Acu-Link.com,2013-03-08 00:59:00,
2013-03-07 20:14:00,39.2,26.5,30.00,WNW,292,1.6,-999.0,60,-99.99,,,1.46,Acu-Link.com,2013-03-08 01:14:00,
2013-03-07 20:29:00,39.2,26.9,30.01,East,90,1.6,-999.0,61,-99.99,,,1.46,Acu-Link.com,2013-03-08 01:29:00,
2013-03-07 20:45:00,37.4,24.8,30.02,East,90,3.1,-999.0,60,-99.99,,,1.46,Acu-Link.com,2013-03-08 01:45:00,
2013-03-07 21:00:00,37.4,25.2,30.03,NNW,337,1.6,-999.0,61,-99.99,,,1.46,Acu-Link.com,2013-03-08 02:00:00,
2013-03-07 21:15:00,37.4,25.2,30.02,WNW,292,4.0,-999.0,61,-99.99,,,1.46,Acu-Link.com,2013-03-08 02:15:00,
2013-03-07 21:30:00,35.6,24.3,30.03,NW,315,2.0,-999.0,63,-99.99,,,1.46,Acu-Link.com,2013-03-08 02:30:00,
2013-03-07 21:46:00,35.6,24.3,30.03,NE,45,1.1,-999.0,63,-99.99,,,1.46,Acu-Link.com,2013-03-08 02:46:00,
2013-03-07 22:01:00,35.6,25.0,30.04,North,0,4.0,-999.0,65,-99.99,,,1.46,Acu-Link.com,2013-03-08 03:01:00,
2013-03-07 22:16:00,35.6,25.4,30.04,NNE,22,3.1,-999.0,66,-99.99,,,1.46,Acu-Link.com,2013-03-08 03:16:00,
2013-03-07 22:31:00,35.6,25.4,30.04,East,90,3.1,-999.0,66,-99.99,,,1.46,Acu-Link.com,2013-03-08 03:31:00,
2013-03-07 22:46:00,35.6,25.4,30.04,WSW,247,2.0,-999.0,66,-99.99,,,1.46,Acu-Link.com,2013-03-08 03:46:00,
2013-03-07 23:02:00,33.8,24.0,30.04,South,180,1.1,-999.0,67,-99.99,,,1.46,Acu-Link.com,2013-03-08 04:02:00,
2013-03-07 23:17:00,33.8,24.7,30.04,NW,315,1.6,-999.0,69,-99.99,,,1.46,Acu-Link.com,2013-03-08 04:17:00,
2013-03-07 23:32:00,32.0,23.3,30.04,West,270,2.7,-999.0,70,-99.99,,,1.46,Acu-Link.com,2013-03-08 04:32:00,
2013-03-07 23:48:00,32.0,23.3,30.04,NNE,22,0.0,-999.0,70,-99.99,,,1.46,Acu-Link.com,2013-03-08 04:48:00,